Time;durP1;ratioP1;P1;durP2;ratioP2;P2;SDS_P1;SDS_P2;PMS_P1;PMS_P2;Temp;Humidity;BMP_temperature;BMP_pressure;BME280_temperature;BME280_humidity;BME280_pressure;Samples;Min_cycle;Max_cycle;Signal;HPM_P1;HPM_P2
2022/03/26 00:00:44;;;;;;;;;54.75;43.50;;;;;14.48;35.74;101965.75;5078535;27;47325;-85
2022/03/26 00:03:09;;;;;;;;;55.25;44.00;;;;;14.44;35.84;101962.47;5079792;27;45727;-86
2022/03/26 00:05:35;;;;;;;;;50.50;40.25;;;;;14.37;36.21;101961.19;5096891;27;45944;-86
2022/03/26 00:08:01;;;;;;;;;55.50;44.00;;;;;14.33;36.13;101964.09;5098718;27;45498;-86
2022/03/26 00:10:27;;;;;;;;;54.75;42.50;;;;;14.29;35.90;101960.81;5079783;27;47841;-86
2022/03/26 00:12:52;;;;;;;;;51.00;39.75;;;;;14.25;36.41;101956.69;5096864;27;45698;-86
2022/03/26 00:15:19;;;;;;;;;54.00;43.00;;;;;14.25;36.42;101962.78;5097888;27;45460;-86
2022/03/26 00:17:44;;;;;;;;;58.25;44.00;;;;;14.22;36.90;101959.50;5097824;27;46856;-84
2022/03/26 00:20:10;;;;;;;;;52.50;41.25;;;;;14.23;36.76;101961.22;5097373;27;45769;-84
2022/03/26 00:22:36;;;;;;;;;56.50;45.00;;;;;14.14;36.61;101948.63;5099038;27;45624;-86
2022/03/26 00:25:02;;;;;;;;;55.25;42.00;;;;;14.10;36.66;101947.97;5080396;27;45924;-84
2022/03/26 00:27:27;;;;;;;;;55.25;42.75;;;;;14.06;36.94;101954.38;5082316;27;47275;-86
2022/03/26 00:29:55;;;;;;;;;54.25;40.25;;;;;14.07;37.06;101957.88;5101353;27;45631;-86
2022/03/26 00:32:21;;;;;;;;;58.75;42.75;;;;;14.01;37.25;101955.63;5082047;27;45561;-86
2022/03/26 00:34:47;;;;;;;;;56.00;43.50;;;;;14.01;37.44;101966.16;5116103;27;45606;-86
2022/03/26 00:37:13;;;;;;;;;61.25;43.50;;;;;13.93;37.29;101958.72;5099836;27;45546;-86
2022/03/26 00:43:00;;;;;;;;;53.25;42.00;;;;;13.87;37.13;101954.69;5100676;27;45452;-85
2022/03/26 00:45:27;;;;;;;;;57.50;43.50;;;;;13.83;37.73;101968.16;5082460;27;45522;-86
2022/03/26 00:47:52;;;;;;;;;60.25;44.00;;;;;13.81;37.54;101960.38;5101455;27;45788;-86
2022/03/26 00:50:18;;;;;;;;;60.25;46.00;;;;;13.79;37.87;101961.41;5101795;27;45636;-87
2022/03/26 00:52:44;;;;;;;;;52.00;42.25;;;;;13.78;37.80;101960.56;5102920;27;45510;-85
2022/03/26 00:55:09;;;;;;;;;58.75;44.75;;;;;13.74;38.00;101958.22;5109092;27;45431;-85
2022/03/26 00:57:40;;;;;;;;;53.75;42.25;;;;;13.76;37.70;101961.59;5093885;27;47160;-85
2022/03/26 01:00:07;;;;;;;;;54.50;43.50;;;;;13.69;37.87;101950.59;5107079;27;45493;-85
2022/03/26 01:02:33;;;;;;;;;52.50;41.00;;;;;13.68;37.96;101959.44;5100494;27;45482;-84
2022/03/26 01:04:59;;;;;;;;;55.25;42.00;;;;;13.66;37.92;101953.41;5100191;27;45468;-87
2022/03/26 01:07:26;;;;;;;;;51.75;40.75;;;;;13.59;37.76;101940.75;5100131;27;45454;-85
2022/03/26 01:13:14;;;;;;;;;51.75;39.25;;;;;13.62;38.27;101951.06;5098362;27;45474;-86
2022/03/26 01:15:40;;;;;;;;;54.25;39.25;;;;;13.57;38.66;101950.50;5098213;27;45686;-83
2022/03/26 01:18:06;;;;;;;;;58.75;45.25;;;;;13.51;38.34;101943.00;5099748;27;46968;-86
2022/03/26 01:20:32;;;;;;;;;56.00;41.50;;;;;13.53;38.33;101960.41;5082044;27;47083;-85
2022/03/26 01:22:58;;;;;;;;;55.75;40.75;;;;;13.50;38.47;101955.31;5099446;27;45805;-85
2022/03/26 01:25:24;;;;;;;;;57.00;44.50;;;;;13.49;38.36;101955.41;5101653;27;45592;-85
2022/03/26 01:27:50;;;;;;;;;55.25;42.75;;;;;13.47;38.77;101954.66;5099964;27;47415;-86
2022/03/26 01:30:16;;;;;;;;;54.25;41.25;;;;;13.43;38.38;101946.13;5099788;27;47257;-87
2022/03/26 01:32:43;;;;;;;;;51.50;40.75;;;;;13.40;38.63;101941.00;5100675;27;45490;-86
2022/03/26 01:35:09;;;;;;;;;57.50;43.75;;;;;13.40;38.74;101943.66;5100808;27;45624;-86
2022/03/26 01:37:35;;;;;;;;;54.00;41.75;;;;;13.37;38.74;101946.47;5081361;27;47643;-85
2022/03/26 01:43:22;;;;;;;;;59.00;45.25;;;;;13.29;39.03;101936.41;5101233;27;45608;-86
2022/03/26 01:45:47;;;;;;;;;53.25;42.50;;;;;13.25;38.87;101939.34;5105016;27;45483;-86
2022/03/26 01:48:13;;;;;;;;;55.25;42.00;;;;;13.22;39.07;101934.25;5101559;27;45587;-86
2022/03/26 01:50:40;;;;;;;;;61.25;46.75;;;;;13.23;39.14;101930.66;5103313;27;46145;-86
2022/03/26 01:53:06;;;;;;;;;52.75;44.25;;;;;13.18;39.19;101930.94;5107882;27;45613;-85
2022/03/26 01:55:31;;;;;;;;;53.50;42.00;;;;;13.16;39.33;101922.31;5107421;27;45511;-85
2022/03/26 01:57:57;;;;;;;;;54.75;42.00;;;;;13.14;39.60;101924.19;5085699;27;47678;-86
2022/03/26 02:00:22;;;;;;;;;50.75;42.75;;;;;13.09;39.59;101923.59;5106421;27;45725;-86
2022/03/26 02:02:48;;;;;;;;;58.00;44.50;;;;;13.04;39.34;101913.34;5107024;27;45629;-86
2022/03/26 02:05:15;;;;;;;;;50.75;41.75;;;;;13.06;39.66;101923.78;5097293;27;45545;-86
2022/03/26 02:07:43;;;;;;;;;46.75;40.50;;;;;13.00;39.67;101919.75;5078517;27;48165;-85
2022/03/26 02:13:49;;;;;;;;;56.50;45.25;;;;;12.99;39.98;101922.47;5100070;27;45951;-86
2022/03/26 02:16:15;;;;;;;;;51.50;42.00;;;;;12.92;39.77;101915.88;5081461;27;45760;-86
2022/03/26 02:18:40;;;;;;;;;53.50;42.50;;;;;12.91;39.94;101920.28;5098387;27;45768;-85
2022/03/26 02:21:06;;;;;;;;;58.25;44.00;;;;;12.89;40.02;101911.66;5078107;27;48269;-85
2022/03/26 02:23:31;;;;;;;;;52.75;44.00;;;;;12.84;39.68;101905.81;5096491;27;45479;-86
2022/03/26 02:25:56;;;;;;;;;58.00;41.75;;;;;12.85;39.57;101914.53;5098243;27;45440;-86
2022/03/26 02:28:22;;;;;;;;;54.00;42.00;;;;;12.83;39.89;101916.44;5096933;27;45638;-85
2022/03/26 02:30:48;;;;;;;;;50.50;38.00;;;;;12.82;40.35;101925.25;5096335;27;45569;-85
2022/03/26 02:33:13;;;;;;;;;52.50;41.25;;;;;12.80;40.36;101920.06;5096868;27;45540;-85
2022/03/26 02:35:38;;;;;;;;;58.25;46.00;;;;;12.77;40.42;101919.41;5078420;27;45465;-84
2022/03/26 02:38:04;;;;;;;;;55.50;43.25;;;;;12.75;40.30;101921.28;5095428;27;47665;-84
2022/03/26 02:43:51;;;;;;;;;46.00;38.50;;;;;12.69;40.38;101914.59;5094907;27;46013;-84
2022/03/26 02:46:16;;;;;;;;;53.00;40.50;;;;;12.66;40.33;101909.53;5078806;27;45611;-85
2022/03/26 02:48:44;;;;;;;;;58.00;44.25;;;;;12.57;40.37;101895.16;5078121;27;48578;-84
2022/03/26 02:51:10;;;;;;;;;59.75;45.00;;;;;12.63;40.47;101913.16;5096016;27;46138;-84
2022/03/26 02:53:35;;;;;;;;;57.75;43.25;;;;;12.57;40.46;101908.31;5097491;27;45745;-86
2022/03/26 02:56:01;;;;;;;;;57.75;44.50;;;;;12.54;40.48;101902.34;5098065;27;45624;-86
2022/03/26 02:58:26;;;;;;;;;54.50;41.75;;;;;12.58;40.56;101915.22;5096002;27;46784;-86
2022/03/26 03:00:52;;;;;;;;;51.50;39.00;;;;;12.56;40.26;101909.22;5094534;27;47316;-86
2022/03/26 03:03:17;;;;;;;;;54.50;41.50;;;;;12.54;40.70;101911.09;5096623;27;45743;-85
2022/03/26 03:05:46;;;;;;;;;58.00;45.75;;;;;12.53;40.59;101903.28;5096051;27;45707;-86
2022/03/26 03:08:15;;;;;;;;;57.50;43.75;;;;;12.50;40.57;101899.06;5077218;27;47364;-85
2022/03/26 03:14:04;;;;;;;;;54.50;42.50;;;;;12.48;40.57;101895.66;5095367;27;46060;-84
2022/03/26 03:16:31;;;;;;;;;55.50;43.25;;;;;12.47;40.54;101898.41;5095671;27;45701;-84
2022/03/26 03:18:56;;;;;;;;;51.50;41.75;;;;;12.48;40.63;101911.44;5095711;27;46446;-85
2022/03/26 03:21:22;;;;;;;;;55.75;44.50;;;;;12.43;40.67;101905.59;5093955;27;47362;-84
2022/03/26 03:23:47;;;;;;;;;57.50;42.00;;;;;12.44;40.63;101902.03;5095371;27;45676;-84
2022/03/26 03:26:13;;;;;;;;;54.25;42.75;;;;;12.42;40.67;101903.06;5076802;27;45663;-84
2022/03/26 03:28:39;;;;;;;;;53.25;41.25;;;;;12.42;40.99;101910.94;5095555;27;45647;-86
2022/03/26 03:31:04;;;;;;;;;58.50;45.50;;;;;12.39;40.44;101903.25;5095221;27;45689;-83
2022/03/26 03:33:30;;;;;;;;;53.50;43.00;;;;;12.35;40.75;101897.34;5095500;27;45609;-85
2022/03/26 03:35:56;;;;;;;;;53.25;44.50;;;;;12.40;40.88;101910.22;5076679;27;45705;-84
2022/03/26 03:38:22;;;;;;;;;53.00;40.25;;;;;12.37;40.83;101905.09;5095129;27;46546;-84
2022/03/26 03:44:10;;;;;;;;;50.00;41.75;;;;;12.33;40.97;101899.19;5095197;27;45843;-85
2022/03/26 03:46:36;;;;;;;;;60.50;44.50;;;;;12.36;41.05;101912.13;5095237;27;45542;-86
2022/03/26 03:49:02;;;;;;;;;45.25;38.75;;;;;12.29;40.90;101904.72;5095171;27;46591;-85
2022/03/26 03:51:28;;;;;;;;;47.00;39.00;;;;;12.34;40.98;101910.56;5095475;27;46442;-85
2022/03/26 03:53:53;;;;;;;;;51.50;38.00;;;;;12.27;40.73;101901.31;5094973;27;45526;-85
2022/03/26 03:56:19;;;;;;;;;54.50;42.50;;;;;12.28;41.25;101903.03;5095036;27;45761;-85
2022/03/26 03:58:44;;;;;;;;;56.50;42.50;;;;;12.29;40.73;101910.81;5095016;27;47210;-85
2022/03/26 04:01:10;;;;;;;;;53.25;41.75;;;;;12.28;41.16;101906.50;5095077;27;45613;-85
2022/03/26 04:03:35;;;;;;;;;55.25;46.00;;;;;12.28;41.12;101914.38;5095032;27;45601;-86
2022/03/26 04:06:01;;;;;;;;;56.00;43.00;;;;;12.23;41.53;101907.69;5093459;27;45657;-85
2022/03/26 04:08:27;;;;;;;;;55.00;42.25;;;;;12.20;41.28;101906.06;5094689;27;45858;-86
2022/03/26 04:14:14;;;;;;;;;54.50;43.00;;;;;12.17;41.24;101922.03;5094430;27;45616;-85
2022/03/26 04:16:39;;;;;;;;;52.25;38.75;;;;;12.13;41.32;101910.84;5076270;27;45456;-85
2022/03/26 04:19:04;;;;;;;;;55.00;40.50;;;;;12.12;41.12;101921.44;5094640;27;45551;-85
2022/03/26 04:21:30;;;;;;;;;53.75;42.75;;;;;12.12;41.15;101911.78;5094686;27;46369;-85
2022/03/26 04:23:56;;;;;;;;;57.75;46.00;;;;;12.09;41.40;101911.13;5076004;27;45826;-85
2022/03/26 04:29:57;;;;;;;;;54.00;42.25;;;;;12.12;41.23;101921.44;5084966;27;46685;-85
2022/03/26 04:32:22;;;;;;;;;55.75;43.50;;;;;12.11;41.48;101925.84;5094601;27;46439;-85
2022/03/26 04:34:48;;;;;;;;;52.25;42.25;;;;;12.06;41.65;101922.63;5094535;27;45705;-84
2022/03/26 04:37:13;;;;;;;;;53.25;40.00;;;;;12.02;41.54;101918.50;5094726;27;45774;-85
2022/03/26 04:39:39;;;;;;;;;52.50;40.50;;;;;12.06;41.88;101927.03;5094537;27;46378;-85
2022/03/26 04:42:05;;;;;;;;;56.50;42.50;;;;;11.97;41.94;101920.53;5094588;27;45869;-85
2022/03/26 04:44:30;;;;;;;;;59.00;46.00;;;;;11.98;41.64;101924.00;5094585;27;45505;-84
2022/03/26 04:46:57;;;;;;;;;50.50;41.50;;;;;11.90;41.78;101924.41;5092933;27;45885;-85
2022/03/26 04:49:23;;;;;;;;;51.75;42.75;;;;;11.90;41.86;101911.28;5075591;27;47688;-84
2022/03/26 04:51:49;;;;;;;;;57.50;41.25;;;;;11.92;41.84;101919.94;5094357;27;45997;-85
2022/03/26 04:54:14;;;;;;;;;52.50;41.50;;;;;11.93;41.69;101931.28;5075891;27;46004;-85
2022/03/26 05:00:01;;;;;;;;;58.50;43.00;;;;;11.86;41.99;101920.28;5094079;27;45961;-85
2022/03/26 05:02:27;;;;;;;;;55.25;41.00;;;;;11.81;41.94;101913.59;5094508;27;45763;-86
2022/03/26 05:04:52;;;;;;;;;51.00;41.00;;;;;11.80;41.85;101911.88;5079961;27;45940;-85
2022/03/26 05:10:02;;;;;;;;;60.00;46.00;;;;;11.81;41.89;101924.09;5104429;27;46077;-86
2022/03/26 05:12:28;;;;;;;;;49.25;42.00;;;;;11.78;41.85;101925.09;5103596;27;47268;-85
2022/03/26 05:14:54;;;;;;;;;52.50;40.75;;;;;11.77;42.09;101920.75;5103960;27;45907;-86
2022/03/26 05:17:20;;;;;;;;;61.50;46.75;;;;;11.78;42.21;101930.34;5086527;27;45725;-85
2022/03/26 05:19:45;;;;;;;;;50.25;41.00;;;;;11.78;42.04;101931.19;5104394;27;46548;-85
2022/03/26 05:22:11;;;;;;;;;50.75;40.00;;;;;11.74;42.24;101934.91;5102703;27;45613;-85
2022/03/26 05:27:58;;;;;;;;;55.25;44.25;;;;;11.71;42.29;101924.53;5097681;27;45732;-86
2022/03/26 05:30:24;;;;;;;;;47.00;38.75;;;;;11.71;42.36;101932.41;5074951;28;47462;-85
2022/03/26 05:32:50;;;;;;;;;51.75;41.00;;;;;11.65;42.24;101931.94;5076538;27;46081;-85
2022/03/26 05:35:16;;;;;;;;;53.00;39.50;;;;;11.68;42.11;101937.00;5076514;27;45882;-86
2022/03/26 05:37:43;;;;;;;;;43.50;38.00;;;;;11.65;42.36;101935.41;5076790;27;45586;-84
2022/03/26 05:43:30;;;;;;;;;57.50;43.00;;;;;11.59;42.66;101948.00;5076329;28;46102;-85
2022/03/26 05:45:55;;;;;;;;;57.50;44.00;;;;;11.57;42.87;101949.84;5076683;27;45800;-85
2022/03/26 05:48:21;;;;;;;;;57.75;45.25;;;;;11.56;42.56;101949.00;5076712;27;45776;-86
2022/03/26 05:50:47;;;;;;;;;55.00;40.00;;;;;11.55;42.66;101957.78;5074967;28;48648;-85
2022/03/26 05:53:12;;;;;;;;;56.00;40.00;;;;;11.49;42.78;101952.06;5109405;27;48129;-85
2022/03/26 05:58:59;;;;;;;;;47.25;40.00;;;;;11.49;42.72;101959.94;5076369;28;45493;-85
2022/03/26 06:01:25;;;;;;;;;57.25;42.00;;;;;11.48;42.44;101966.09;5074700;28;47350;-85
2022/03/26 06:03:50;;;;;;;;;55.00;43.50;;;;;11.45;42.83;101956.59;5076104;27;46243;-84
2022/03/26 06:06:16;;;;;;;;;50.25;42.00;;;;;11.43;42.74;101955.84;5091826;27;45664;-85
2022/03/26 06:08:42;;;;;;;;;53.50;42.25;;;;;11.45;42.58;101961.84;5074937;28;46030;-86
2022/03/26 06:14:29;;;;;;;;;50.50;39.50;;;;;11.45;42.49;101959.22;5075789;28;46202;-84
2022/03/26 06:16:55;;;;;;;;;59.75;43.50;;;;;11.47;42.71;101965.25;5074423;28;45548;-85
2022/03/26 06:19:20;;;;;;;;;51.50;40.00;;;;;11.49;42.75;101973.03;5076175;27;45810;-85
2022/03/26 06:21:46;;;;;;;;;53.50;41.50;;;;;11.49;42.78;101965.16;5075849;27;45623;-85
2022/03/26 06:24:12;;;;;;;;;53.50;42.00;;;;;11.50;42.65;101980.81;5074648;28;46084;-85
2022/03/26 06:29:59;;;;;;;;;55.75;44.00;;;;;11.45;43.03;101980.22;5086277;27;46627;-85
2022/03/26 06:32:24;;;;;;;;;54.75;39.00;;;;;11.45;42.86;101979.38;5094923;27;46528;-84
2022/03/26 06:34:50;;;;;;;;;53.50;42.00;;;;;11.43;42.83;101973.38;5077640;27;47048;-85
2022/03/26 06:37:16;;;;;;;;;56.00;43.00;;;;;11.48;43.06;101984.47;5097704;27;45820;-84
2022/03/26 06:39:41;;;;;;;;;58.25;44.75;;;;;11.45;43.09;101982.00;5098287;27;45601;-84
2022/03/26 06:45:29;;;;;;;;;57.50;43.75;;;;;11.41;43.29;101983.94;5095562;27;46044;-84
2022/03/26 06:47:54;;;;;;;;;55.00;42.00;;;;;11.43;43.31;101989.97;5077434;27;45573;-83
2022/03/26 06:50:20;;;;;;;;;58.75;43.25;;;;;11.38;43.49;101989.34;5096252;27;45792;-85
2022/03/26 06:52:45;;;;;;;;;53.75;39.50;;;;;11.44;43.47;102001.31;5095971;27;45503;-84
2022/03/26 06:55:11;;;;;;;;;53.00;41.75;;;;;11.42;43.45;102009.25;5076800;27;47313;-83
2022/03/26 07:00:58;;;;;;;;;54.25;44.00;;;;;11.36;43.30;102007.78;5095570;27;45662;-84
2022/03/26 07:03:24;;;;;;;;;55.75;41.50;;;;;11.41;43.26;102012.81;5095693;27;46322;-86
2022/03/26 07:05:50;;;;;;;;;62.00;46.00;;;;;11.42;43.07;102011.88;5095552;27;45654;-84
2022/03/26 07:08:15;;;;;;;;;59.00;44.00;;;;;11.44;42.95;102014.44;5094088;27;45751;-85
2022/03/26 07:10:44;;;;;;;;;49.00;39.75;;;;;11.44;43.35;102017.06;5095773;27;45764;-86
2022/03/26 07:13:10;;;;;;;;;58.25;43.25;;;;;11.45;43.41;102021.34;5111042;27;48638;-85
2022/03/26 07:15:36;;;;;;;;;57.00;44.00;;;;;11.40;43.23;102018.13;5095295;27;45629;-84
2022/03/26 07:18:01;;;;;;;;;61.00;45.00;;;;;11.38;43.52;102018.22;5093641;27;46114;-85
2022/03/26 07:20:27;;;;;;;;;58.50;46.50;;;;;11.33;43.76;102015.84;5076976;27;45540;-85
2022/03/26 07:22:55;;;;;;;;;54.75;42.50;;;;;11.42;43.32;102035.50;5110953;27;49100;-86
2022/03/26 07:25:21;;;;;;;;;61.75;49.00;;;;;11.38;43.18;102035.75;5095177;27;46209;-85
2022/03/26 07:31:18;;;;;;;;;47.75;40.00;;;;;11.48;43.27;102036.94;5072240;28;45729;-85
2022/03/26 07:33:53;;;;;;;;;;;;;;;;;;;;;
2022/03/26 07:36:32;;;;;;;;;;;;;;;;;;;;;
2022/03/26 07:38:58;;;;;;;;;56.75;46.75;;;;;11.55;42.79;102046.22;5093757;27;72763;-84
2022/03/26 07:41:24;;;;;;;;;56.25;43.00;;;;;11.56;43.12;102042.63;5076753;27;45662;-83
2022/03/26 07:43:50;;;;;;;;;53.25;42.00;;;;;11.61;42.96;102049.34;5095019;27;46700;-84
2022/03/26 07:46:18;;;;;;;;;54.00;43.25;;;;;11.63;42.93;102050.13;5076364;27;47390;-84
2022/03/26 07:48:46;;;;;;;;;52.00;39.50;;;;;11.58;42.79;102036.41;5093426;27;45684;-84
2022/03/26 07:51:12;;;;;;;;;59.75;46.00;;;;;11.67;42.64;102046.41;5095268;27;45770;-84
2022/03/26 07:53:37;;;;;;;;;55.25;43.00;;;;;11.70;42.84;102041.00;5076549;27;48312;-84
2022/03/26 07:56:03;;;;;;;;;59.00;45.25;;;;;11.65;42.78;102035.16;5076473;27;46886;-85
2022/03/26 07:58:29;;;;;;;;;56.25;44.00;;;;;11.80;42.89;102051.03;5076746;27;45699;-83
2022/03/26 08:00:55;;;;;;;;;62.25;46.25;;;;;11.84;42.48;102049.94;5076665;27;45740;-84
2022/03/26 08:03:20;;;;;;;;;61.50;43.00;;;;;11.84;42.68;102042.91;5076653;27;47819;-84
2022/03/26 08:05:46;;;;;;;;;62.25;46.75;;;;;11.92;42.95;102053.03;5076849;27;48133;-85
2022/03/26 08:08:11;;;;;;;;;51.25;42.50;;;;;11.93;42.61;102046.84;5079013;27;45599;-83
2022/03/26 08:10:37;;;;;;;;;60.75;46.00;;;;;11.98;42.13;102055.34;5096546;27;45578;-84
2022/03/26 08:16:25;;;;;;;;;59.25;43.75;;;;;12.08;42.03;102052.13;5097352;27;45692;-84
2022/03/26 08:18:50;;;;;;;;;57.25;43.00;;;;;12.11;42.09;102046.69;5097824;27;45707;-83
2022/03/26 08:21:17;;;;;;;;;58.50;44.25;;;;;12.19;41.90;102055.03;5097226;27;45805;-85
2022/03/26 08:23:43;;;;;;;;;56.75;42.75;;;;;12.25;41.79;102051.22;5097693;27;45629;-85
2022/03/26 08:26:32;;;;;;;;;53.00;42.00;;;;;12.30;41.54;102059.69;5097056;27;47251;-85
2022/03/26 08:29:00;;;;;;;;;55.25;42.00;;;;;12.35;41.43;102055.03;5018170;28;45720;-85
2022/03/26 08:31:28;;;;;;;;;55.25;41.75;;;;;12.41;41.63;102049.44;5036275;28;45853;-85
2022/03/26 08:33:53;;;;;;;;;60.25;44.00;;;;;12.44;41.44;102046.63;5014660;28;46357;-83
2022/03/26 08:36:19;;;;;;;;;50.50;39.75;;;;;12.52;41.26;102054.91;5012799;28;46150;-83
2022/03/26 08:38:46;;;;;;;;;53.25;42.25;;;;;12.57;41.07;102058.16;5012284;28;45599;-84
2022/03/26 08:41:16;;;;;;;;;59.50;43.50;;;;;12.65;40.80;102060.34;5014263;28;45768;-83
2022/03/26 08:43:43;;;;;;;;;53.75;40.00;;;;;12.69;40.98;102056.59;4999202;28;47718;-84
2022/03/26 08:46:09;;;;;;;;;51.50;38.50;;;;;12.72;40.96;102048.53;4997917;28;48160;-84
2022/03/26 08:48:34;;;;;;;;;57.75;42.00;;;;;12.77;40.88;102043.88;5015183;28;45610;-81
2022/03/26 08:51:00;;;;;;;;;54.75;42.75;;;;;12.84;40.04;102049.63;4998351;28;45826;-83
2022/03/26 08:53:26;;;;;;;;;51.75;38.00;;;;;12.94;40.04;102058.69;5014966;28;45794;-83
2022/03/26 08:55:52;;;;;;;;;50.75;40.75;;;;;13.00;39.86;102058.34;5014696;28;45786;-83
2022/03/26 09:01:39;;;;;;;;;53.00;41.00;;;;;13.16;39.64;102055.69;5014819;28;45607;-82
2022/03/26 09:04:04;;;;;;;;;55.00;41.00;;;;;13.20;39.36;102060.69;4997623;28;47521;-84
2022/03/26 09:06:30;;;;;;;;;48.50;39.00;;;;;13.23;39.09;102052.59;5072700;27;46327;-83
2022/03/26 09:08:55;;;;;;;;;48.00;38.00;;;;;13.30;38.79;102053.06;5078969;27;45494;-83
2022/03/26 09:11:21;;;;;;;;;47.75;37.00;;;;;13.38;38.58;102064.00;5097758;27;45635;-81
2022/03/26 09:13:46;;;;;;;;;51.25;40.75;;;;;13.43;38.76;102052.28;5097447;27;45693;-83
2022/03/26 09:16:11;;;;;;;;;56.50;42.50;;;;;13.48;38.64;102057.25;5097181;27;45655;-82
2022/03/26 09:18:37;;;;;;;;;52.25;42.00;;;;;13.57;38.44;102056.69;5097338;27;45716;-83
2022/03/26 09:21:02;;;;;;;;;50.50;41.50;;;;;13.60;38.48;102048.63;5097352;27;45587;-82
2022/03/26 09:23:28;;;;;;;;;53.00;41.00;;;;;13.64;38.56;102044.00;5097249;27;46624;-81
2022/03/26 09:25:53;;;;;;;;;48.25;37.50;;;;;13.74;38.03;102045.13;5097033;27;45729;-81
2022/03/26 09:31:41;;;;;;;;;48.50;38.25;;;;;13.90;38.32;102047.66;5091265;27;45810;-82
2022/03/26 09:34:06;;;;;;;;;54.50;40.25;;;;;13.99;38.31;102041.81;5097523;27;46849;-80
2022/03/26 09:36:32;;;;;;;;;48.00;39.25;;;;;14.04;38.09;102048.50;5097113;27;46549;-81
2022/03/26 09:38:57;;;;;;;;;51.25;40.75;;;;;14.12;37.99;102040.13;5097360;27;45775;-82
2022/03/26 09:41:23;;;;;;;;;51.75;38.50;;;;;14.18;37.63;102045.84;5097681;27;45600;-81
2022/03/26 09:47:11;;;;;;;;;47.50;38.25;;;;;14.34;37.81;102039.59;5096934;27;46225;-82
2022/03/26 09:49:39;;;;;;;;;0.00;0.00;;;;;14.43;37.56;102037.25;5079129;27;45762;-82
2022/03/26 09:52:06;;;;;;;;;51.50;42.25;;;;;14.53;37.46;102048.03;5097879;27;45777;-81
2022/03/26 09:54:33;;;;;;;;;44.00;35.75;;;;;14.56;37.33;102042.59;5096463;27;46779;-81
2022/03/26 09:56:59;;;;;;;;;54.50;41.50;;;;;14.65;36.81;102034.06;5096640;27;45927;-84
2022/03/26 09:59:25;;;;;;;;;47.25;36.50;;;;;14.68;37.07;102033.88;5078473;27;45489;-82
2022/03/26 10:01:51;;;;;;;;;49.75;40.00;;;;;14.78;36.80;102040.25;5097160;27;45700;-83
2022/03/26 10:04:19;;;;;;;;;54.25;43.00;;;;;14.86;37.01;102045.00;5096382;27;45704;-82
2022/03/26 10:06:58;;;;;;;;;48.00;38.75;;;;;14.88;36.60;102036.06;5094792;27;47260;-84
2022/03/26 10:09:37;;;;;;;;;50.50;39.75;;;;;15.02;36.20;102040.41;5096759;27;45961;-82
2022/03/26 10:12:05;;;;;;;;;54.50;40.50;;;;;15.07;36.56;102040.94;5095274;27;45611;-83
2022/03/26 10:14:47;;;;;;;;;44.50;35.25;;;;;15.13;36.30;102043.16;5096246;27;47831;-84
2022/03/26 10:17:15;;;;;;;;;52.00;41.25;;;;;15.21;36.31;102035.59;5094634;27;46608;-83
2022/03/26 10:19:49;;;;;;;;;47.75;39.00;;;;;15.21;36.26;102025.03;5096464;27;45912;-83
2022/03/26 10:22:26;;;;;;;;;51.00;39.00;;;;;15.32;36.13;102029.59;5096726;27;45761;-83
2022/03/26 10:24:52;;;;;;;;;50.50;39.75;;;;;15.41;35.85;102036.88;5096498;27;46507;-85
2022/03/26 10:27:17;;;;;;;;;54.50;42.50;;;;;15.48;35.98;102039.00;5095978;27;47088;-88
2022/03/26 10:29:54;;;;;;;;;53.50;41.75;;;;;15.51;35.20;102030.00;5115729;27;45694;-88
2022/03/26 10:32:41;;;;;;;;;49.00;41.25;;;;;15.60;36.08;102029.38;5097600;27;45602;-86
2022/03/26 10:35:35;;;;;;;;;52.00;40.50;;;;;15.64;35.73;102025.59;5096816;27;45699;-84
2022/03/26 10:38:05;;;;;;;;;56.25;42.25;;;;;15.74;35.55;102024.00;5096075;27;46136;-86
2022/03/26 10:40:34;;;;;;;;;46.00;36.00;;;;;15.85;35.13;102028.53;5094665;27;46080;-82
2022/03/26 10:43:17;;;;;;;;;53.00;42.25;;;;;15.93;34.85;102020.91;5094613;27;45508;-81
2022/03/26 10:45:49;;;;;;;;;50.75;39.25;;;;;16.08;34.93;102021.63;5095566;27;46435;-83
2022/03/26 10:48:15;;;;;;;;;53.50;40.50;;;;;16.19;34.79;102025.19;5095837;27;46130;-82
2022/03/26 10:50:41;;;;;;;;;52.00;40.75;;;;;16.25;34.47;102019.44;5096002;27;45866;-83
2022/03/26 10:53:14;;;;;;;;;55.00;43.25;;;;;16.31;33.83;102019.00;5095739;27;45517;-83
2022/03/26 10:55:40;;;;;;;;;52.50;40.50;;;;;16.32;33.92;102007.47;5093916;27;46761;-81
2022/03/26 10:58:06;;;;;;;;;50.50;39.25;;;;;16.47;32.97;102016.06;5095287;27;46275;-83
2022/03/26 11:00:33;;;;;;;;;54.25;41.00;;;;;16.53;33.50;102023.56;5094093;27;45667;-82
2022/03/26 11:02:58;;;;;;;;;47.00;39.00;;;;;16.60;33.09;102019.56;5095720;27;45479;-82
2022/03/26 11:05:25;;;;;;;;;54.75;42.75;;;;;16.69;33.51;102015.38;5094360;27;45412;-82
2022/03/26 11:07:52;;;;;;;;;54.00;42.00;;;;;16.76;33.18;102012.16;5095236;27;45521;-83
2022/03/26 11:10:19;;;;;;;;;53.00;40.00;;;;;16.85;33.12;102012.41;5095797;27;45844;-84
2022/03/26 11:12:46;;;;;;;;;54.00;41.25;;;;;16.88;32.99;102006.91;5093914;27;45589;-83
2022/03/26 11:15:26;;;;;;;;;56.00;43.25;;;;;16.98;32.91;102002.59;5095249;27;45637;-83
2022/03/26 11:18:13;;;;;;;;;55.25;40.00;;;;;17.08;32.46;101996.50;5095157;27;46194;-82
2022/03/26 11:21:14;;;;;;;;;53.50;38.25;;;;;17.18;32.51;101996.63;5095676;27;45596;-84
2022/03/26 11:24:00;;;;;;;;;50.50;40.25;;;;;17.27;32.08;101995.09;5052517;28;45612;-82
2022/03/26 11:26:44;;;;;;;;;52.50;42.00;;;;;17.34;32.42;101996.28;5035701;28;48376;-85
2022/03/26 11:29:39;;;;;;;;;53.50;40.50;;;;;17.42;32.44;101992.09;5054284;28;45783;-83
2022/03/26 11:32:22;;;;;;;;;53.50;40.75;;;;;17.52;31.83;101995.72;5061066;28;45566;-81
2022/03/26 11:34:58;;;;;;;;;51.25;37.75;;;;;17.58;31.59;101984.66;5036135;28;45848;-81
2022/03/26 11:37:24;;;;;;;;;56.25;42.00;;;;;17.68;30.83;101989.25;5052833;28;46435;-84
2022/03/26 11:39:57;;;;;;;;;53.00;43.00;;;;;17.73;30.87;101984.41;5052875;28;45692;-84
2022/03/26 11:51:27;;;;;;;;;50.00;40.25;;;;;17.99;29.46;101969.91;5052403;28;45737;-83
2022/03/26 11:53:58;;;;;;;;;52.50;40.50;;;;;17.99;29.46;101956.66;5036088;28;45607;-82
2022/03/26 11:56:26;;;;;;;;;52.00;39.75;;;;;18.09;29.92;101972.66;5054116;28;45637;-83
2022/03/26 12:02:18;;;;;;;;;51.25;42.75;;;;;18.22;29.83;101974.22;5093751;27;45705;-82
2022/03/26 12:04:55;;;;;;;;;46.25;36.25;;;;;18.24;28.38;101966.16;5092317;27;45947;-84
2022/03/26 12:07:24;;;;;;;;;52.00;39.75;;;;;18.30;28.95;101960.34;5094451;27;45629;-84
2022/03/26 12:10:11;;;;;;;;;53.50;38.75;;;;;18.35;28.68;101974.88;5094786;27;46758;-85
2022/03/26 12:13:01;;;;;;;;;50.50;40.25;;;;;18.41;28.38;101966.41;5077884;27;48399;-87
2022/03/26 12:15:28;;;;;;;;;53.50;41.50;;;;;18.45;28.59;101964.38;5078131;27;45994;-87
2022/03/26 12:18:05;;;;;;;;;55.00;41.25;;;;;18.44;28.64;101946.75;5085162;27;45738;-84
2022/03/26 12:20:47;;;;;;;;;50.75;40.75;;;;;18.44;27.93;101947.59;5083409;27;47720;-88
2022/03/26 12:23:34;;;;;;;;;48.25;39.50;;;;;18.48;28.56;101934.91;5102265;27;47285;-87
2022/03/26 12:26:07;;;;;;;;;48.00;39.50;;;;;18.51;28.44;101947.94;5083362;27;45921;-87
2022/03/26 12:28:35;;;;;;;;;47.50;37.00;;;;;18.58;28.00;101948.28;5106313;27;45710;-87
2022/03/26 12:31:05;;;;;;;;;49.75;38.75;;;;;18.62;27.07;101957.72;5101098;27;48503;-86
2022/03/26 12:33:40;;;;;;;;;53.00;40.50;;;;;18.64;27.43;101951.28;5084735;27;46186;-86
2022/03/26 12:36:07;;;;;;;;;44.00;34.00;;;;;18.67;27.45;101947.53;5101847;27;45994;-86
2022/03/26 12:38:32;;;;;;;;;51.75;39.25;;;;;18.66;26.54;101940.53;5102483;27;45758;-86
2022/03/26 12:41:01;;;;;;;;;48.75;39.25;;;;;18.69;26.56;101932.31;5102746;27;46408;-87
2022/03/26 12:43:27;;;;;;;;;51.00;39.00;;;;;18.70;26.91;101934.84;5101623;27;46646;-85